Latest Weather Observations for Tuggeranong

IDN60901

Issued at 9:21 am EDT Saturday 13 February 2016 (issued every 10 minutes, with the page automatically refreshed every 10 minutes)

About weather observations | Map of Canberra area stations | Latest observations for Canberra area | Other Formats
Station Details ID: 070339 Name: TUGGERANONG (ISABELLA PLAINS) AWS Lat: -35.42 Lon: 149.09 Height: 586.7 m
Data from the previous 72 hours. | See also: Recent months at Tuggeranong
Date/Time
EDT
Tmp

°C
App
Tmp
°C
Dew
Point
°C
Rel
Hum
%
Delta-T

°C
Wind Press
QNH
hPa
Press
MSL
hPa
Rain
since
9 am
mm
Dir
 
Spd
km/h
Gust
km/h
Spd
kts
Gust
kts
13/09:00am 21.3 22.7 17.3 78 2.5 WSW 6 7 3 4 1016.1 1013.3 0.0
13/08:30am 20.9 23.4 17.3 80 2.3 CALM 0 4 0 2 1016.1 1013.3 0.0
13/08:00am 19.2 21.5 16.8 86 1.5 CALM 0 0 0 0 1016.0 1013.2 0.0
13/07:30am 18.5 20.9 17.0 91 0.9 CALM 0 0 0 0 1015.9 1013.1 0.0
13/07:00am 17.7 20.1 17.1 96 0.4 CALM 0 0 0 0 1015.8 1013.0 0.0
13/06:30am 17.5 19.8 16.7 95 0.5 CALM 0 0 0 0 1015.5 1012.8 0.0
13/06:00am 17.5 19.5 16.9 96 0.4 ESE 2 7 1 4 1015.3 1012.5 0.0
13/05:30am 17.5 18.7 17.3 99 0.1 E 7 9 4 5 1015.2 1012.4 0.0
13/05:00am 16.8 19.1 16.8 100 0.0 CALM 0 0 0 0 1015.2 1012.4 0.0
13/04:30am 16.3 18.2 15.7 96 0.4 CALM 0 0 0 0 1015.2 1012.4 0.0
13/04:00am 16.6 18.7 16.3 98 0.2 CALM 0 0 0 0 1015.3 1012.5 0.0
13/03:30am 17.0 19.2 16.4 96 0.4 CALM 0 0 0 0 1015.4 1012.7 0.0
13/03:00am 17.3 19.5 16.5 95 0.5 CALM 0 0 0 0 1015.5 1012.8 0.0
13/02:30am 18.6 19.4 16.4 87 1.4 SE 7 7 4 4 1015.7 1012.9 0.0
13/02:00am 19.0 20.1 17.1 89 1.2 ESE 7 9 4 5 1015.8 1013.0 0.0
13/01:30am 18.8 19.4 16.9 89 1.2 E 9 9 5 5 1015.9 1013.1 0.0
13/01:00am 18.8 19.8 16.8 88 1.2 E 7 9 4 5 1016.2 1013.4 0.0
13/12:30am 19.1 20.0 16.7 86 1.5 E 7 9 4 5 1016.3 1013.5 0.0
13/12:00am 19.5 20.6 16.7 84 1.7 E 6 7 3 4 1016.4 1013.6 0.0
 
Date/Time
EDT
Tmp

°C
App
Tmp
°C
Dew
Point
°C
Rel
Hum
%
Delta-T

°C
Wind Press
QNH
hPa
Press
MSL
hPa
Rain
since
9 am
mm
Dir
 
Spd
km/h
Gust
km/h
Spd
kts
Gust
kts
12/11:30pm 20.4 22.5 17.2 82 2.0 ENE 2 6 1 3 1016.4 1013.6 0.0
12/11:00pm 20.7 22.4 17.1 80 2.3 E 4 9 2 5 1016.5 1013.7 0.0
12/10:30pm 21.0 23.4 17.0 78 2.5 CALM 0 0 0 0 1016.6 1013.8 0.0
12/10:00pm 22.2 23.6 17.3 74 3.1 NNW 6 7 3 4 1016.8 1014.0 0.0
12/09:30pm 22.0 22.8 17.2 74 3.0 WSW 9 11 5 6 1016.6 1013.8 0.0
12/09:00pm 23.0 23.0 17.2 70 3.7 ENE 13 24 7 13 1016.0 1013.2 0.0
12/08:30pm 23.7 22.6 17.2 67 4.1 NE 19 28 10 15 1015.5 1012.8 0.0
12/08:00pm 25.0 23.0 15.6 56 5.8 ENE 20 28 11 15 1015.3 1012.5 0.0
12/07:30pm 26.8 25.3 13.2 43 8.2 NE 13 17 7 9 1015.0 1012.2 0.0
12/07:00pm 26.7 26.0 13.1 43 8.2 E 9 13 5 7 1014.7 1011.9 0.0
12/06:30pm 26.9 25.2 12.5 40 8.6 E 13 19 7 10 1014.6 1011.8 0.0
12/06:00pm 27.4 25.2 13.4 42 8.5 E 17 26 9 14 1014.7 1011.9 0.0
12/05:30pm 29.0 27.5 9.2 29 11.3 WNW 7 13 4 7 1014.6 1011.8 0.0
12/05:00pm 28.9 27.7 9.6 30 11.1 NNW 6 15 3 8 1014.7 1011.9 0.0
12/04:30pm 28.6 27.8 12.9 38 9.5 WNW 9 17 5 9 1014.9 1012.1 0.0
12/04:00pm 27.7 25.6 12.5 39 9.1 W 15 19 8 10 1014.8 1012.0 0.0
12/03:30pm 26.2 24.5 14.6 48 7.1 W 17 22 9 12 1015.3 1012.5 0.0
12/03:00pm 26.4 25.5 14.8 49 7.1 WNW 13 17 7 9 1015.7 1012.9 0.0
12/02:30pm 27.2 27.0 14.6 46 7.8 WNW 9 17 5 9 1016.0 1013.2 0.0
12/02:00pm 26.9 25.3 12.9 42 8.4 N 13 19 7 10 1016.1 1013.3 0.0
12/01:30pm 26.9 26.0 13.6 44 8.1 ENE 11 22 6 12 1016.3 1013.5 0.0
12/01:00pm 25.9 25.5 14.1 48 7.2 E 9 17 5 9 1016.8 1014.0 0.0
12/12:30pm 25.4 25.6 14.8 52 6.5 NNE 7 13 4 7 1017.3 1014.6 0.0
12/12:00pm 24.2 24.1 14.9 56 5.7 ENE 9 19 5 10 1017.9 1015.1 0.0
12/11:30am 23.8 24.1 15.0 57 5.4 NE 7 13 4 7 1018.1 1015.3 0.0
12/11:00am 22.9 23.2 15.0 61 4.8 E 7 11 4 6 1018.4 1015.6 0.0
12/10:30am 22.1 22.7 15.2 65 4.2 ENE 6 15 3 8 1018.8 1016.1 0.0
12/10:00am 20.6 20.5 14.0 66 3.9 ESE 7 11 4 6 1019.1 1016.4 0.0
12/09:30am 20.4 20.1 14.3 68 3.6 ENE 9 13 5 7 1019.1 1016.4 0.0
12/09:00am 19.6 19.6 15.3 76 2.6 NE 9 13 5 7 1019.1 1016.4 0.0
12/08:30am 18.7 19.5 15.8 83 1.8 NW 6 9 3 5 1018.9 1016.2 0.0
12/08:00am 17.5 18.5 15.3 87 1.3 WSW 4 9 2 5 1018.7 1016.0 0.0
12/07:30am 16.8 18.5 15.2 90 1.0 CALM 0 0 0 0 1018.5 1015.8 0.0
12/07:00am 15.6 17.0 14.3 92 0.8 CALM 0 0 0 0 1018.2 1015.4 0.0
12/06:30am 15.5 16.7 13.7 89 1.0 CALM 0 0 0 0 1018.0 1015.2 0.0
12/06:00am 16.1 16.3 14.3 89 1.1 NW 6 7 3 4 1017.8 1015.0 0.0
12/05:30am 16.7 18.1 14.5 87 1.3 CALM 0 0 0 0 1017.6 1014.8 0.0
12/05:00am 16.9 18.3 14.5 86 1.4 CALM 0 0 0 0 1017.2 1014.5 0.0
12/04:30am 16.8 18.2 14.4 86 1.4 CALM 0 0 0 0 1017.2 1014.5 0.0
12/04:00am 17.0 18.4 14.5 85 1.5 CALM 0 0 0 0 1017.2 1014.5 0.0
12/03:30am 16.7 18.2 14.7 88 1.2 CALM 0 0 0 0 1017.1 1014.4 0.0
12/03:00am 16.2 17.7 14.7 91 0.9 CALM 0 0 0 0 1017.3 1014.6 0.0
12/02:30am 15.7 16.9 13.9 89 1.0 CALM 0 0 0 0 1017.5 1014.7 0.0
12/02:00am 15.8 16.2 13.8 88 1.2 W 4 7 2 4 1017.6 1014.8 0.0
12/01:30am 16.8 18.1 14.1 84 1.6 CALM 0 0 0 0 1017.8 1015.0 0.0
12/01:00am 16.1 16.6 13.9 87 1.3 SW 4 9 2 5 1018.2 1015.4 0.0
12/12:30am 16.4 17.5 13.5 83 1.7 CALM 0 6 0 3 1018.2 1015.4 0.0
12/12:00am 16.8 16.8 13.7 82 1.8 SW 6 7 3 4 1018.1 1015.3 0.0
 
Date/Time
EDT
Tmp

°C
App
Tmp
°C
Dew
Point
°C
Rel
Hum
%
Delta-T

°C
Wind Press
QNH
hPa
Press
MSL
hPa
Rain
since
9 am
mm
Dir
 
Spd
km/h
Gust
km/h
Spd
kts
Gust
kts
11/11:30pm 17.5 18.7 13.8 79 2.2 CALM 0 0 0 0 1018.2 1015.4 0.0
11/11:00pm 18.1 18.1 14.2 78 2.3 SW 7 9 4 5 1018.8 1016.1 0.0
11/10:30pm 19.0 19.0 13.6 71 3.2 S 6 9 3 5 1018.8 1016.1 0.0
11/10:00pm 19.6 19.9 13.5 68 3.6 SW 4 9 2 5 1018.4 1015.6 0.0
11/09:30pm 19.6 20.0 13.8 69 3.4 WSW 4 9 2 5 1017.8 1015.0 0.0
11/09:00pm 19.0 20.0 13.2 69 3.4 CALM 0 0 0 0 1016.8 1014.0 0.0
11/08:30pm 19.0 18.7 13.2 69 3.4 W 7 13 4 7 1016.9 1014.2 0.0
11/08:00pm 20.3 18.4 13.0 63 4.3 S 15 22 8 12 1016.5 1013.7 0.0
11/07:30pm 22.4 22.0 16.2 68 3.8 SE 13 22 7 12 1016.4 1013.6 0.0
11/07:00pm 22.8 21.8 15.6 64 4.4 SE 15 20 8 11 1016.1 1013.3 0.0
11/06:30pm 22.9 21.6 14.7 60 5.0 S 15 20 8 11 1015.8 1013.0 0.0
11/06:00pm 23.6 23.0 14.6 57 5.5 S 11 17 6 9 1014.9 1012.1 0.0
11/05:30pm 24.0 22.4 13.8 53 6.1 SSE 15 20 8 11 1014.3 1011.5 0.0
11/05:00pm 22.8 20.3 10.9 47 6.8 SE 15 26 8 14 1014.9 1012.1 0.0
11/04:32pm 23.7 18.1 8.9 39 8.2 SE 28 50 15 27 1014.2 1011.4 0.0
11/04:30pm 23.9 18.6 9.9 41 7.9 SE 28 44 15 24 1014.1 1011.3 0.0
11/04:20pm 24.8 21.6 11.4 43 7.8 ESE 19 43 10 23 1014.1 1011.3 0.0
11/04:00pm 28.8 27.8 14.6 42 8.8 E 13 22 7 12 1013.4 1010.6 0.0
11/03:30pm 28.1 26.4 13.6 41 8.8 NE 15 24 8 13 1013.6 1010.8 0.0
11/03:00pm 27.9 26.6 14.9 45 8.1 ENE 15 24 8 13 1014.4 1011.6 0.0
11/02:30pm 28.7 27.1 14.9 43 8.6 ENE 17 26 9 14 1014.7 1011.9 0.0
11/02:00pm 27.5 26.5 14.5 45 8.0 NNE 13 19 7 10 1015.2 1012.4 0.0
11/01:30pm 27.0 25.9 14.4 46 7.7 NNE 13 24 7 13 1015.4 1012.7 0.0
11/01:00pm 26.7 26.3 15.1 49 7.2 NNE 11 20 6 11 1015.8 1013.0 0.0
11/12:30pm 26.1 26.7 15.8 53 6.4 SE 7 11 4 6 1016.2 1013.4 0.0
11/12:00pm 25.5 25.7 15.8 55 6.0 ENE 9 17 5 9 1016.4 1013.6 0.0
11/11:30am 25.0 25.1 16.4 59 5.4 NE 11 15 6 8 1016.7 1013.9 0.0
11/11:00am 23.5 23.7 14.8 58 5.3 SE 7 13 4 7 1016.8 1014.0 0.0
11/10:30am 24.1 24.2 15.6 59 5.3 E 9 13 5 7 1016.9 1014.2 0.0
11/10:00am 22.6 23.9 15.2 63 4.5 ESE 2 9 1 5 1017.0 1014.3 0.0
11/09:30am 21.6 22.5 15.0 66 4.0 S 4 9 2 5 1017.1 1014.4 0.0
11/09:00am 21.4 23.3 15.7 70 3.5 CALM 0 6 0 3 1017.2 1014.5 0.0
11/08:30am 19.8 21.8 15.9 78 2.4 CALM 0 6 0 3 1017.2 1014.5 0.0
11/08:00am 18.4 20.2 15.6 84 1.7 CALM 0 0 0 0 1016.9 1014.2 0.0
11/07:30am 17.3 19.1 15.5 89 1.1 CALM 0 0 0 0 1016.8 1014.0 0.0
11/07:00am 16.0 17.7 15.2 95 0.5 CALM 0 0 0 0 1016.5 1013.7 0.0
11/06:30am 15.7 17.3 14.9 95 0.5 CALM 0 0 0 0 1016.1 1013.3 0.0
11/06:00am 15.6 17.0 14.5 93 0.6 CALM 0 6 0 3 1015.8 1013.0 0.0
11/05:30am 16.0 17.5 14.7 92 0.8 CALM 0 0 0 0 1015.4 1012.7 0.0
11/05:00am 16.0 17.4 14.4 90 0.9 CALM 0 0 0 0 1015.2 1012.4 0.0
11/04:30am 16.5 17.9 14.3 87 1.3 CALM 0 0 0 0 1015.0 1012.2 0.0
11/04:00am 17.1 18.8 15.3 89 1.1 CALM 0 0 0 0 1014.9 1012.1 0.0
11/03:30am 17.2 18.8 14.8 86 1.4 CALM 0 4 0 2 1014.8 1012.0 0.0
11/03:00am 17.5 18.0 15.1 86 1.4 NW 6 7 3 4 1014.9 1012.1 0.0
11/02:30am 18.1 19.9 15.4 84 1.6 CALM 0 0 0 0 1015.0 1012.2 0.0
11/02:00am 17.4 17.7 14.5 83 1.7 WNW 6 7 3 4 1015.3 1012.5 0.0
11/01:30am 18.1 19.7 14.8 81 2.0 CALM 0 0 0 0 1015.5 1012.8 0.0
11/01:00am 18.4 19.8 14.5 78 2.3 CALM 0 0 0 0 1015.7 1012.9 0.0
11/12:30am 19.6 21.2 15.0 75 2.8 CALM 0 0 0 0 1015.8 1013.0 0.0
11/12:00am 20.8 21.1 15.1 70 3.5 E 7 11 4 6 1015.8 1013.0 0.0
 
Date/Time
EDT
Tmp

°C
App
Tmp
°C
Dew
Point
°C
Rel
Hum
%
Delta-T

°C
Wind Press
QNH
hPa
Press
MSL
hPa
Rain
since
9 am
mm
Dir
 
Spd
km/h
Gust
km/h
Spd
kts
Gust
kts
10/11:30pm 20.9 21.2 14.5 67 3.8 SE 6 7 3 4 1015.8 1013.0 0.0
10/11:00pm 21.7 22.4 14.4 63 4.4 SSE 4 7 2 4 1015.8 1013.0 0.0
10/10:30pm 22.3 22.1 14.7 62 4.6 SSE 9 17 5 9 1015.7 1012.9 0.0
10/10:00pm 22.2 22.2 14.1 60 4.9 SE 7 11 4 6 1015.4 1012.7 0.0
10/09:30pm 22.9 22.4 13.7 56 5.5 E 9 15 5 8 1014.9 1012.1 0.0
10/09:00pm 24.1 23.4 13.3 51 6.4 ESE 9 13 5 7 1014.5 1011.7 0.0
10/08:30pm 25.1 23.7 13.3 48 7.1 E 13 20 7 11 1014.0 1011.2 0.0
10/08:00pm 26.9 26.5 12.9 42 8.4 SE 7 17 4 9 1013.5 1010.7 0.0
10/07:30pm 28.1 25.9 10.8 34 10.1 WNW 13 17 7 9 1012.8 1010.0 0.0
10/07:00pm 29.6 26.8 11.2 32 10.9 WNW 17 24 9 13 1012.5 1009.7 0.0
10/06:30pm 30.0 27.4 12.0 33 10.8 WNW 17 26 9 14 1011.8 1009.0 0.0
10/06:00pm 30.8 28.3 12.2 32 11.2 WNW 17 26 9 14 1011.6 1008.8 0.0
10/05:30pm 30.8 28.1 11.7 31 11.4 NW 17 26 9 14 1011.7 1008.9 0.0
10/05:00pm 31.3 29.2 11.1 29 12.0 W 13 24 7 13 1011.7 1008.9 0.0
10/04:30pm 31.1 28.3 9.9 27 12.3 NW 15 26 8 14 1012.1 1009.2 0.0
10/04:00pm 30.9 27.9 9.2 26 12.5 W 15 28 8 15 1012.4 1009.6 0.0
10/03:30pm 30.9 27.9 9.2 26 12.5 NW 15 24 8 13 1012.6 1009.8 0.0
10/03:00pm 30.4 27.3 10.4 29 11.7 NNW 17 26 9 14 1013.0 1010.2 0.0
10/02:30pm 29.8 27.9 15.1 40 9.2 N 19 30 10 16 1013.5 1010.7 0.0
10/02:00pm 28.4 26.9 14.3 42 8.7 NNW 15 22 8 12 1014.2 1011.4 0.0
10/01:30pm 27.9 26.6 15.9 48 7.6 N 17 30 9 16 1014.6 1011.8 0.0
10/01:00pm 27.4 26.1 14.8 46 7.8 NNW 15 24 8 13 1015.0 1012.2 0.0
10/12:30pm 27.1 25.8 15.8 50 7.1 N 17 26 9 14 1015.3 1012.5 0.0
10/12:00pm 26.5 25.5 15.5 50 6.9 NNW 15 24 8 13 1016.0 1013.2 0.0
10/11:30am 26.1 25.6 15.8 53 6.4 N 13 17 7 9 1016.4 1013.6 0.0
10/11:00am 24.8 24.8 16.2 58 5.4 NNW 11 19 6 10 1016.8 1014.0 0.0
10/10:30am 23.4 23.5 15.5 61 4.9 NNW 9 15 5 8 1017.1 1014.4 0.0
10/10:00am 22.1 21.9 14.7 63 4.5 N 9 15 5 8 1017.5 1014.7 0.0
10/09:30am 20.4 21.2 14.7 70 3.4 N 4 7 2 4 1017.9 1015.1 0.0

Latest Capital City Observations: Canberra | Sydney | Melbourne | Brisbane | Adelaide | Perth | Hobart | Darwin

Other Formats:

Comma delimited format used in spreadsheet applications
http://www.bom.gov.au/fwo/IDN60903/IDN60903.94925.axf

JavaScript Object Notation format (JSON) in row-major order
http://www.bom.gov.au/fwo/IDN60903/IDN60903.94925.json